GSPO2: Great Salt Plains Lake

Data processed at Thu Jan 04 2018 23:31


All information presented herein is the property of the government of the United States of America and may be revised or deleted at any time without prior notice.
Dissemination of this information without the expressed written consent of the Public Affairs Office, Tulsa District U.S. Army Corps of Engineers is strictly prohibited.
These data are gathered electronically and, as presented, have not undergone any form of quality control. These data are not guaranteed to be valid or correct.
Go to home page.
Go to station list.

Upstream stations:

Downstream station:
Previous Day
Next Day
Current Day
    
SHEF ID:       GSPO2     Great Salt Plains Lake
STATION TYPE:  RESERVOIR
Normal Pool:  Bottom =  1118.00, Top =  1125.00

               PRECIP  RIV-FLOW ELEVATION   STORAGE    INFLOW   RELEASE  AIR-TEMP  WIND-DIRWIND-SPEED REL-HUMID SOLAR-RAD   VOLTAGE  BAT-LOAD
                   in       cfs        ft     ac-ft       cfs       cfs         F       deg       mph         %      W/m2      volt      volt
              Ccp-Rev  Regi-Rev   Ccp-Rev   Ccp-Rev  Regi-Rev  Regi-Rev   Ccp-Rev   Ccp-Rev   Ccp-Rev   Ccp-Rev   Ccp-Rev   Ccp-Rev   Ccp-Rev
(US/Central)
01/02 00:00      0.00      ----   1178.84   1716000    233204    146749     12.20     62.70      2.50     46.42      0.00     13.53      ----
01/02 01:00      0.00      ----   1178.23   1716000    228764    141948     11.77     77.90      2.70     47.20      0.00     13.53      ----
01/02 02:00      0.00      ----   1177.67   1716000    224580    281600     10.71     80.70      3.30     49.29      0.00     13.53      ----
01/02 03:00      0.00      ----   1177.29   1716000    249518    277840     10.33     82.90      2.10     50.85      0.00     13.53      ----
01/02 04:00      0.00      ----   1176.90   1716000    274416    274760     10.94     86.70      2.50     50.29      0.00     13.53      ----
01/02 05:00      0.00      ----   1176.46   1716000    270752    271440     11.23     86.90      2.50     50.41      0.00     13.53      ----
01/02 06:00      0.00      ----   1175.65   1716000    241526    266440     11.23     88.40      1.70     51.50      0.00     13.56      ----
01/02 07:00      0.00      ----   1175.67   1716000    212924    263280     11.23     47.60      2.20     51.60      0.00     13.56      ----
01/02 08:00      0.00      ----   1175.65   1716000    211260    131709     11.10     72.90      0.60     51.33      0.00     13.56      ----
01/02 09:00      0.00      ----   1175.68   1716000    210064    131749     11.14    160.30      0.50     51.44     36.50     13.56      ----
01/02 10:00      0.00      ----   1175.60   1716000    157408    263120     13.21     74.50      1.60     47.91    141.20     13.56      ----
01/02 11:00      0.00      ----   1175.63   1716000    131078    262920     14.56    250.30      3.20     44.04    362.60     13.56      ----
01/02 12:00      0.00      ----   1125.16     28074         0    131554     15.33    259.80      5.20     43.00    463.70     13.54      ----
01/02 13:00      0.00      ----   1125.14     27866    104740        63     16.27    257.20      7.50     44.06    327.90     13.54      ----
01/02 14:00      0.00      ----   1125.14     27866     52126        57     17.85    257.10      7.80     43.58    313.30     13.54      ----
01/02 15:00      0.00      ----   1125.14     27866        44        57     19.17    254.50      8.50     41.64    245.50     13.54      ----
01/02 16:00      0.00      ----   1125.13     27762        44        54     20.19    260.80      4.40     38.84    104.80     13.54      ----
01/02 17:00      0.00      ----   1125.14     27866        43        54     21.09    259.60      4.70     38.03     67.00     13.54      ----
01/02 18:00      0.00      ----   1125.13     27762    173964        54     21.06    210.80      3.70     37.40      5.30     13.54      ----
01/02 19:00      0.00      ----   1125.13     27762   4116768        52     18.82    181.30      4.70     38.03      0.00     13.41      ----
01/02 20:00      0.00      ----   1130.84     99430   4176509      3680     16.92    179.60      5.80     41.43      0.00     13.18      ----
01/02 21:00      0.00      ----   1180.23   1716000   4235717    153574     15.84    178.10      6.80     44.70      0.00     13.54      ----
01/02 22:00      0.00      ----   1179.96   1716000   4265152    298760     16.12    187.70      8.40     46.30      0.00     13.54      ----
01/02 23:00      0.00      ----   1179.55   1716000   4119929    296040     16.84    197.40      7.80     45.10      0.00     13.54      ----